createdAt,value
2023-02-06T00:00:29.989Z,102461.81
2023-02-06T00:03:03.312Z,102471.41
2023-02-06T00:05:36.906Z,102463.56
2023-02-06T00:08:10.428Z,102458.34
2023-02-06T00:10:43.402Z,102454.88
2023-02-06T00:13:17.984Z,102456.53
2023-02-06T00:15:51.087Z,102459.06
2023-02-06T00:18:24.176Z,102470.44
2023-02-06T00:20:57.201Z,102464.28
2023-02-06T00:23:30.312Z,102464.28
2023-02-06T00:26:03.255Z,102464.44
2023-02-06T00:28:37.685Z,102464.38
2023-02-06T00:31:11.443Z,102474.00
2023-02-06T00:33:47.367Z,102470.63
2023-02-06T00:36:20.466Z,102462.84
2023-02-06T00:38:53.500Z,102469.13
2023-02-06T00:41:26.497Z,102472.72
2023-02-06T00:44:00.830Z,102472.84
2023-02-06T00:46:33.860Z,102459.00
2023-02-06T00:49:06.949Z,102459.09
2023-02-06T00:51:40.041Z,102465.22
2023-02-06T00:54:13.869Z,102464.31
2023-02-06T00:56:47.985Z,102459.00
2023-02-06T00:59:22.344Z,102452.97
2023-02-06T01:01:55.346Z,102454.63
2023-02-06T01:04:28.450Z,102445.75
2023-02-06T01:07:01.440Z,102446.44
2023-02-06T01:09:37.158Z,102443.75
2023-02-06T01:12:10.364Z,102440.31
2023-02-06T01:14:44.846Z,102428.06
2023-02-06T01:17:17.826Z,102421.97
2023-02-06T01:19:50.830Z,102425.47
2023-02-06T01:22:23.982Z,102418.38
2023-02-06T01:24:57.003Z,102406.88
2023-02-06T01:27:30.119Z,102403.31
2023-02-06T01:30:06.575Z,102412.91
2023-02-06T01:32:40.442Z,102415.44
2023-02-06T01:35:13.816Z,102414.50
2023-02-06T01:37:46.797Z,102423.06
2023-02-06T01:40:19.910Z,102426.34
2023-02-06T01:42:53.222Z,102427.09
2023-02-06T01:45:43.705Z,102420.97
2023-02-06T01:48:20.121Z,102417.03
2023-02-06T01:50:57.042Z,102420.28
2023-02-06T01:53:31.332Z,102415.56
2023-02-06T01:56:07.104Z,102414.47
2023-02-06T01:58:45.179Z,102411.56
2023-02-06T02:01:21.388Z,102424.47
2023-02-06T02:04:00.778Z,102411.19
2023-02-06T02:06:34.741Z,102426.69
2023-02-06T02:09:07.730Z,102425.50
2023-02-06T02:11:41.932Z,102425.81
2023-02-06T02:14:17.916Z,102426.56
2023-02-06T02:17:01.294Z,102426.47
2023-02-06T02:20:07.571Z,102422.97
2023-02-06T02:23:06.143Z,102432.38
2023-02-06T02:26:10.798Z,102435.50
2023-02-06T02:29:23.915Z,102425.84
2023-02-06T02:32:27.267Z,102435.13
2023-02-06T02:35:10.656Z,102436.47
2023-02-06T02:37:58.264Z,102441.53
2023-02-06T02:40:44.201Z,102445.78
2023-02-06T02:43:26.230Z,102449.03
2023-02-06T02:46:04.577Z,102445.47
2023-02-06T02:48:41.873Z,102445.22
2023-02-06T02:51:17.703Z,102451.94
2023-02-06T02:53:50.714Z,102448.38
2023-02-06T02:56:26.312Z,102453.41
2023-02-06T02:59:05.832Z,102449.91
2023-02-06T03:01:43.854Z,102452.44
2023-02-06T03:04:22.946Z,102447.22
2023-02-06T03:07:10.436Z,102454.22
2023-02-06T03:09:54.502Z,102456.75
2023-02-06T03:12:39.662Z,102448.22
2023-02-06T03:15:25.634Z,102450.97
2023-02-06T03:18:03.158Z,102442.31
2023-02-06T03:20:41.404Z,102446.81
2023-02-06T03:23:20.395Z,102440.84
2023-02-06T03:25:57.179Z,102439.28
2023-02-06T03:28:35.005Z,102441.22
2023-02-06T03:31:11.408Z,102442.28
2023-02-06T03:33:50.416Z,102442.44
2023-02-06T03:36:23.453Z,102433.03
2023-02-06T03:38:57.927Z,102435.72
2023-02-06T03:41:36.779Z,102423.66
2023-02-06T03:44:16.762Z,102431.56
2023-02-06T03:46:52.107Z,102429.81
2023-02-06T03:49:29.083Z,102423.72
2023-02-06T03:52:06.318Z,102416.78
2023-02-06T03:54:45.266Z,102414.16
2023-02-06T03:57:20.206Z,102412.41
2023-02-06T03:59:53.240Z,102406.28
2023-02-06T04:02:27.454Z,102409.72
2023-02-06T04:05:00.466Z,102410.44
2023-02-06T04:07:36.205Z,102398.22
2023-02-06T04:10:11.690Z,102400.78
2023-02-06T04:12:44.662Z,102391.06
2023-02-06T04:15:17.747Z,102387.59
2023-02-06T04:17:59.836Z,102393.69
2023-02-06T04:20:33.830Z,102397.94
2023-02-06T04:23:06.807Z,102396.13
2023-02-06T04:25:41.226Z,102397.03
2023-02-06T04:28:14.575Z,102395.34
2023-02-06T04:30:49.015Z,102395.50
2023-02-06T04:33:22.089Z,102403.44
2023-02-06T04:35:55.520Z,102403.59
2023-02-06T04:38:28.506Z,102413.38
2023-02-06T04:41:05.374Z,102408.38
2023-02-06T04:43:38.369Z,102417.16
2023-02-06T04:46:11.326Z,102416.44
2023-02-06T04:48:44.272Z,102421.78
2023-02-06T04:51:17.380Z,102419.34
2023-02-06T04:53:50.383Z,102415.88
2023-02-06T04:56:25.955Z,102418.56
2023-02-06T04:58:58.922Z,102420.44
2023-02-06T05:01:31.917Z,102419.75
2023-02-06T05:04:04.954Z,102418.00
2023-02-06T05:06:37.976Z,102422.31
2023-02-06T05:09:10.938Z,102413.56
2023-02-06T05:11:45.327Z,102416.25
2023-02-06T05:14:18.332Z,102416.25
2023-02-06T05:16:51.367Z,102418.94
2023-02-06T05:19:24.370Z,102420.59
2023-02-06T05:21:57.358Z,102424.94
2023-02-06T05:24:30.548Z,102424.16
2023-02-06T05:27:05.241Z,102427.75
2023-02-06T05:29:38.262Z,102428.66
2023-02-06T05:32:11.260Z,102419.97
2023-02-06T05:34:44.233Z,102421.78
2023-02-06T05:37:17.215Z,102425.28
2023-02-06T05:39:50.223Z,102420.13
2023-02-06T05:42:24.649Z,102423.66
2023-02-06T05:44:57.607Z,102422.75
2023-02-06T05:47:30.671Z,102436.78
2023-02-06T05:50:03.718Z,102442.00
2023-02-06T05:52:36.731Z,102433.25
2023-02-06T05:55:10.291Z,102438.41
2023-02-06T05:57:44.619Z,102442.75
2023-02-06T06:00:18.244Z,102434.75
2023-02-06T06:02:51.253Z,102436.41
2023-02-06T06:05:24.258Z,102433.66
2023-02-06T06:07:57.243Z,102437.06
2023-02-06T06:10:30.316Z,102434.38
2023-02-06T06:13:04.764Z,102434.31
2023-02-06T06:15:38.133Z,102434.38
2023-02-06T06:18:11.971Z,102434.38
2023-02-06T06:20:44.990Z,102437.00
2023-02-06T06:23:18.039Z,102437.06
2023-02-06T06:25:51.453Z,102432.81
2023-02-06T06:28:25.778Z,102438.03
2023-02-06T06:31:03.075Z,102432.81
2023-02-06T06:33:36.358Z,102438.09
2023-02-06T06:36:12.925Z,102432.97
2023-02-06T06:39:11.712Z,102434.69
2023-02-06T06:41:44.961Z,102440.78
2023-02-06T06:44:19.388Z,102435.56
2023-02-06T06:46:52.433Z,102432.22
2023-02-06T06:49:25.417Z,102440.13
2023-02-06T06:51:58.412Z,102442.81
2023-02-06T06:54:31.416Z,102441.16
2023-02-06T06:57:04.370Z,102446.59
2023-02-06T06:59:38.766Z,102444.28
2023-02-06T07:02:14.287Z,102466.38
2023-02-06T07:04:47.498Z,102458.75
2023-02-06T07:07:20.520Z,102464.25
2023-02-06T07:09:53.508Z,102451.50
2023-02-06T07:12:26.990Z,102463.19
2023-02-06T07:15:01.428Z,102459.28
2023-02-06T07:17:34.633Z,102454.63
2023-02-06T07:20:08.646Z,102456.00
2023-02-06T07:22:41.637Z,102458.81
2023-02-06T07:25:14.797Z,102458.13
2023-02-06T07:27:48.825Z,102455.28
2023-02-06T07:30:23.070Z,102450.34
2023-02-06T07:32:56.104Z,102459.47
2023-02-06T07:35:29.110Z,102449.97
2023-02-06T07:38:02.153Z,102450.94
2023-02-06T07:40:44.731Z,102444.84
2023-02-06T07:43:18.465Z,102441.56
2023-02-06T07:45:52.897Z,102449.19
2023-02-06T07:48:25.897Z,102450.16
2023-02-06T07:51:04.595Z,102457.38
2023-02-06T07:53:40.661Z,102455.84
2023-02-06T07:56:15.871Z,102461.22
2023-02-06T07:58:51.647Z,102471.03
2023-02-06T08:01:26.074Z,102467.66
2023-02-06T08:03:59.414Z,102475.81
2023-02-06T08:06:32.584Z,102468.16
2023-02-06T08:09:06.006Z,102462.44
2023-02-06T08:11:39.037Z,102461.25
2023-02-06T08:14:12.728Z,102462.84
2023-02-06T08:16:47.313Z,102459.06
2023-02-06T08:19:20.816Z,102457.69
2023-02-06T08:21:53.793Z,102455.78
2023-02-06T08:24:26.904Z,102449.66
2023-02-06T08:26:59.893Z,102450.72
2023-02-06T08:29:32.860Z,102449.94
2023-02-06T08:32:07.445Z,102451.38
2023-02-06T08:34:41.580Z,102446.53
2023-02-06T08:37:14.706Z,102450.28
2023-02-06T08:39:47.822Z,102449.28
2023-02-06T08:42:20.784Z,102441.06
2023-02-06T08:44:54.326Z,102450.91
2023-02-06T08:47:28.664Z,102459.72
2023-02-06T08:50:03.344Z,102467.59
2023-02-06T08:52:36.771Z,102463.50
2023-02-06T08:55:09.911Z,102456.16
2023-02-06T08:57:42.886Z,102452.94
2023-02-06T09:00:17.496Z,102452.09
2023-02-06T09:02:53.558Z,102452.50
2023-02-06T09:05:26.534Z,102455.41
2023-02-06T09:07:59.483Z,102454.59
2023-02-06T09:10:32.430Z,102452.88
2023-02-06T09:13:05.964Z,102457.56
2023-02-06T09:15:39.973Z,102458.59
2023-02-06T09:18:14.540Z,102453.44
2023-02-06T09:20:49.789Z,102451.97
2023-02-06T09:23:22.912Z,102452.72
2023-02-06T09:25:55.919Z,102446.75
2023-02-06T09:28:29.036Z,102440.25
2023-02-06T09:31:02.165Z,102443.91
2023-02-06T09:33:38.017Z,102440.25
2023-02-06T09:36:13.560Z,102444.34
2023-02-06T09:38:48.324Z,102450.19
2023-02-06T09:41:29.926Z,102425.50
2023-02-06T09:44:07.857Z,102433.09
2023-02-06T09:46:46.749Z,102418.75
2023-02-06T09:49:26.059Z,102426.69
2023-02-06T09:52:22.574Z,102424.75
2023-02-06T09:55:04.724Z,102424.69
2023-02-06T09:57:46.686Z,102419.72
2023-02-06T10:00:36.644Z,102420.34
2023-02-06T10:03:24.880Z,102424.09
2023-02-06T10:06:10.183Z,102410.94
2023-02-06T10:08:48.281Z,102410.50
2023-02-06T10:11:32.419Z,102415.31
2023-02-06T10:14:10.908Z,102419.09
2023-02-06T10:16:48.422Z,102426.22
2023-02-06T10:19:27.032Z,102424.25
2023-02-06T10:22:06.031Z,102430.44
2023-02-06T10:24:45.452Z,102432.88
2023-02-06T10:27:19.143Z,102431.38
2023-02-06T10:29:52.237Z,102429.78
2023-02-06T10:32:39.591Z,102429.53
2023-02-06T10:35:27.535Z,102429.72
2023-02-06T10:38:17.580Z,102431.84
2023-02-06T10:40:56.743Z,102430.72
2023-02-06T10:43:40.463Z,102442.00
2023-02-06T10:46:30.615Z,102437.88
2023-02-06T10:49:10.432Z,102432.66
2023-02-06T10:51:47.454Z,102438.78
2023-02-06T10:54:25.587Z,102434.84
2023-02-06T10:57:00.667Z,102436.19
2023-02-06T10:59:36.371Z,102436.47
2023-02-06T11:02:20.535Z,102431.34
2023-02-06T11:05:00.007Z,102437.50
2023-02-06T11:07:39.294Z,102437.59
2023-02-06T11:10:17.822Z,102438.56
2023-02-06T11:13:01.507Z,102445.72
2023-02-06T11:15:40.109Z,102441.34
2023-02-06T11:18:18.661Z,102444.88
2023-02-06T11:20:55.491Z,102452.88
2023-02-06T11:23:54.013Z,102450.19
2023-02-06T11:26:28.394Z,102454.59
2023-02-06T11:29:14.878Z,102467.84
2023-02-06T11:31:52.290Z,102470.44
2023-02-06T11:34:30.416Z,102479.28
2023-02-06T11:37:05.666Z,102477.44
2023-02-06T11:39:40.226Z,102476.47
2023-02-06T11:42:23.309Z,102480.81
2023-02-06T11:44:56.287Z,102470.06
2023-02-06T11:47:37.180Z,102475.22
2023-02-06T11:50:25.688Z,102465.41
2023-02-06T11:53:09.819Z,102454.81
2023-02-06T11:55:43.086Z,102457.78
2023-02-06T11:58:19.206Z,102457.78
2023-02-06T12:01:04.266Z,102458.78
2023-02-06T12:03:40.784Z,102443.13
2023-02-06T12:06:16.226Z,102445.66
2023-02-06T12:08:52.188Z,102441.69
2023-02-06T12:11:29.211Z,102441.25
2023-02-06T12:14:06.733Z,102441.13
2023-02-06T12:16:45.591Z,102445.72
2023-02-06T12:19:22.372Z,102449.56
2023-02-06T12:21:59.052Z,102452.47
2023-02-06T12:24:35.072Z,102447.41
2023-02-06T12:27:16.493Z,102457.25
2023-02-06T12:29:57.497Z,102455.53
2023-02-06T12:32:38.070Z,102452.84
2023-02-06T12:35:18.086Z,102454.56
2023-02-06T12:37:57.372Z,102455.41
2023-02-06T12:40:41.549Z,102458.00
2023-02-06T12:43:19.505Z,102453.44
2023-02-06T12:45:59.765Z,102449.00
2023-02-06T12:48:43.619Z,102461.38
2023-02-06T12:51:22.185Z,102463.31
2023-02-06T12:54:00.798Z,102461.56
2023-02-06T12:56:39.333Z,102468.63
2023-02-06T12:59:33.618Z,102465.00
2023-02-06T13:02:20.933Z,102466.69
2023-02-06T13:04:56.273Z,102465.69
2023-02-06T13:07:30.843Z,102469.16
2023-02-06T13:10:08.019Z,102467.28
2023-02-06T13:12:41.064Z,102457.53
2023-02-06T13:15:23.740Z,102459.44
2023-02-06T13:17:56.995Z,102452.72
2023-02-06T13:20:33.343Z,102448.38
2023-02-06T13:23:24.924Z,102443.13
2023-02-06T13:25:57.985Z,102441.34
2023-02-06T13:29:00.014Z,102441.34
2023-02-06T13:31:35.527Z,102448.41
2023-02-06T13:34:18.921Z,102441.00
2023-02-06T13:36:54.622Z,102448.09
2023-02-06T13:39:31.757Z,102438.53
2023-02-06T13:42:31.243Z,102429.38
2023-02-06T13:45:06.225Z,102427.25
2023-02-06T13:48:06.022Z,102421.94
2023-02-06T13:50:55.780Z,102435.16
2023-02-06T13:54:04.352Z,102439.91
2023-02-06T13:56:50.555Z,102440.22
2023-02-06T13:59:29.192Z,102431.13
2023-02-06T14:02:11.853Z,102423.63
2023-02-06T14:04:47.189Z,102423.19
2023-02-06T14:07:44.697Z,102423.84
2023-02-06T14:10:36.556Z,102407.84
2023-02-06T14:13:25.160Z,102412.97
2023-02-06T14:16:18.208Z,102412.16
2023-02-06T14:19:00.500Z,102408.97
2023-02-06T14:21:46.967Z,102430.50
2023-02-06T14:24:40.265Z,102428.69
2023-02-06T14:27:30.035Z,102437.19
2023-02-06T14:30:13.956Z,102434.31
2023-02-06T14:32:51.472Z,102448.75
2023-02-06T14:35:38.616Z,102445.06
2023-02-06T14:38:46.298Z,102457.97
2023-02-06T14:41:19.845Z,102449.28
2023-02-06T14:43:54.600Z,102455.50
2023-02-06T14:46:28.907Z,102462.41
2023-02-06T14:49:04.005Z,102459.47
2023-02-06T14:51:41.463Z,102460.78
2023-02-06T14:54:33.684Z,102456.84
2023-02-06T14:57:16.570Z,102453.72
2023-02-06T14:59:57.556Z,102453.28
2023-02-06T15:02:34.150Z,102457.25
2023-02-06T15:05:07.838Z,102455.94
2023-02-06T15:07:41.089Z,102459.03
2023-02-06T15:10:18.358Z,102461.25
2023-02-06T15:12:53.529Z,102459.03
2023-02-06T15:15:32.377Z,102457.69
2023-02-06T15:18:07.332Z,102458.94
2023-02-06T15:20:42.867Z,102463.63
2023-02-06T15:23:21.465Z,102464.88
2023-02-06T15:26:04.600Z,102468.72
2023-02-06T15:28:39.465Z,102472.59
2023-02-06T15:31:21.029Z,102480.00
2023-02-06T15:33:56.258Z,102476.97
2023-02-06T15:36:32.518Z,102472.16
2023-02-06T15:39:09.688Z,102479.69
2023-02-06T15:41:53.018Z,102474.06
2023-02-06T15:44:32.802Z,102482.50
2023-02-06T15:47:14.756Z,102483.09
2023-02-06T15:49:50.148Z,102482.81
2023-02-06T15:52:35.431Z,102492.25
2023-02-06T15:55:09.057Z,102502.38
2023-02-06T15:57:44.823Z,102506.56
2023-02-06T16:00:24.607Z,102507.19
2023-02-06T16:03:03.269Z,102516.50
2023-02-06T16:05:40.681Z,102517.09
2023-02-06T16:08:21.771Z,102517.72
2023-02-06T16:10:58.291Z,102523.47
2023-02-06T16:13:33.527Z,102526.59
2023-02-06T16:16:20.910Z,102531.53
2023-02-06T16:18:58.679Z,102539.88
2023-02-06T16:21:35.054Z,102553.53
2023-02-06T16:24:16.722Z,102562.00
2023-02-06T16:26:52.397Z,102559.84
2023-02-06T16:29:28.602Z,102556.03
2023-02-06T16:32:04.053Z,102561.00
2023-02-06T16:34:42.158Z,102565.06
2023-02-06T16:37:17.926Z,102564.72
2023-02-06T16:39:51.154Z,102559.13
2023-02-06T16:42:26.271Z,102555.38
2023-02-06T16:45:02.035Z,102562.13
2023-02-06T16:47:35.286Z,102568.81
2023-02-06T16:50:17.473Z,102561.50
2023-02-06T16:52:52.886Z,102553.34
2023-02-06T16:55:28.891Z,102557.56
2023-02-06T16:58:03.059Z,102556.56
2023-02-06T17:00:36.502Z,102548.53
2023-02-06T17:03:10.971Z,102554.47
2023-02-06T17:05:47.078Z,102555.25
2023-02-06T17:08:22.354Z,102546.38
2023-02-06T17:10:55.680Z,102552.50
2023-02-06T17:13:28.993Z,102557.69
2023-02-06T17:16:02.617Z,102575.06
2023-02-06T17:18:35.895Z,102577.50
2023-02-06T17:21:14.020Z,102577.31
2023-02-06T17:23:50.042Z,102582.41
2023-02-06T17:26:24.733Z,102594.56
2023-02-06T17:28:58.042Z,102588.34
2023-02-06T17:31:31.381Z,102594.44
2023-02-06T17:34:05.126Z,102590.84
2023-02-06T17:36:40.969Z,102580.28
2023-02-06T17:39:14.868Z,102568.81
2023-02-06T17:41:48.200Z,102566.13
2023-02-06T17:44:21.883Z,102579.09
2023-02-06T17:46:55.190Z,102574.44
2023-02-06T17:49:28.471Z,102578.59
2023-02-06T17:52:03.245Z,102573.16
2023-02-06T17:54:36.805Z,102580.81
2023-02-06T17:57:10.398Z,102584.09
2023-02-06T17:59:43.676Z,102591.75
2023-02-06T18:02:16.947Z,102579.38
2023-02-06T18:04:51.557Z,102578.31
2023-02-06T18:07:26.210Z,102578.16
2023-02-06T18:09:59.595Z,102573.59
2023-02-06T18:12:32.817Z,102577.81
2023-02-06T18:15:06.528Z,102583.72
2023-02-06T18:17:39.898Z,102572.25
2023-02-06T18:20:16.017Z,102578.28
2023-02-06T18:22:53.927Z,102584.22
2023-02-06T18:25:27.212Z,102577.06
2023-02-06T18:28:00.573Z,102588.25
2023-02-06T18:30:34.641Z,102581.19
2023-02-06T18:33:08.135Z,102588.91
2023-02-06T18:35:42.398Z,102577.56
2023-02-06T18:38:18.084Z,102569.50
2023-02-06T18:40:51.462Z,102566.66
2023-02-06T18:43:27.700Z,102572.50
2023-02-06T18:46:07.835Z,102573.06
2023-02-06T18:48:41.322Z,102570.16
2023-02-06T18:51:14.597Z,102568.22
2023-02-06T18:53:49.484Z,102569.88
2023-02-06T18:56:22.765Z,102567.03
2023-02-06T18:58:57.085Z,102566.00
2023-02-06T19:01:30.340Z,102563.31
2023-02-06T19:04:04.085Z,102572.88
2023-02-06T19:06:39.498Z,102571.09
2023-02-06T19:09:14.555Z,102572.75
2023-02-06T19:11:48.716Z,102577.97
2023-02-06T19:14:22.685Z,102571.75
2023-02-06T19:16:55.856Z,102573.00
2023-02-06T19:19:29.257Z,102569.75
2023-02-06T19:22:02.587Z,102576.59
2023-02-06T19:24:37.444Z,102587.84
2023-02-06T19:27:11.434Z,102582.59
2023-02-06T19:29:44.444Z,102590.13
2023-02-06T19:32:17.899Z,102585.22
2023-02-06T19:34:51.145Z,102588.56
2023-02-06T19:37:24.410Z,102587.53
2023-02-06T19:39:59.175Z,102593.41
2023-02-06T19:42:32.503Z,102596.72
2023-02-06T19:45:07.285Z,102590.47
2023-02-06T19:47:40.549Z,102587.69
2023-02-06T19:50:14.458Z,102603.16
2023-02-06T19:52:47.480Z,102594.91
2023-02-06T19:55:22.396Z,102599.50
2023-02-06T19:57:55.681Z,102594.94
2023-02-06T20:00:29.016Z,102600.06
2023-02-06T20:03:02.233Z,102616.63
2023-02-06T20:05:35.813Z,102608.78
2023-02-06T20:08:09.033Z,102608.72
2023-02-06T20:10:43.687Z,102616.41
2023-02-06T20:13:17.020Z,102629.38
2023-02-06T20:15:50.227Z,102627.53
2023-02-06T20:18:23.514Z,102620.44
2023-02-06T20:20:58.800Z,102619.47
2023-02-06T20:23:35.061Z,102626.25
2023-02-06T20:26:09.784Z,102621.69
2023-02-06T20:28:43.059Z,102618.91
2023-02-06T20:31:16.761Z,102616.31
2023-02-06T20:33:50.959Z,102618.84
2023-02-06T20:36:26.506Z,102620.41
2023-02-06T20:39:01.364Z,102620.25
2023-02-06T20:41:36.477Z,102621.06
2023-02-06T20:44:12.268Z,102628.88
2023-02-06T20:46:45.550Z,102640.16
2023-02-06T20:49:20.679Z,102639.31
2023-02-06T20:51:54.708Z,102631.50
2023-02-06T20:54:28.185Z,102639.97
2023-02-06T20:57:02.902Z,102635.81
2023-02-06T20:59:36.162Z,102643.50
2023-02-06T21:02:11.097Z,102636.41
2023-02-06T21:04:44.880Z,102637.06
2023-02-06T21:10:35.790Z,102629.66
2023-02-06T21:13:12.198Z,102638.22
2023-02-06T21:15:51.297Z,102639.88
2023-02-06T21:18:26.078Z,102638.72
2023-02-06T21:21:07.269Z,102635.13
2023-02-06T21:23:43.855Z,102635.94
2023-02-06T21:26:18.444Z,102636.69
2023-02-06T21:28:53.896Z,102635.78
2023-02-06T21:31:36.138Z,102633.16
2023-02-06T21:34:13.441Z,102628.88
2023-02-06T21:36:49.697Z,102623.56
2023-02-06T21:39:27.004Z,102614.75
2023-02-06T21:42:03.127Z,102612.88
2023-02-06T21:44:38.127Z,102620.56
2023-02-06T21:47:11.455Z,102620.38
2023-02-06T21:49:46.455Z,102617.69
2023-02-06T21:52:22.416Z,102623.63
2023-02-06T21:54:58.112Z,102618.41
2023-02-06T21:57:32.106Z,102613.94
2023-02-06T22:00:06.924Z,102608.41
2023-02-06T22:02:45.951Z,102613.00
2023-02-06T22:05:20.967Z,102617.13
2023-02-06T22:07:58.985Z,102604.84
2023-02-06T22:10:33.022Z,102607.53
2023-02-06T22:13:07.308Z,102608.56
2023-02-06T22:15:49.052Z,102614.03
2023-02-06T22:18:22.272Z,102614.19
2023-02-06T22:21:04.366Z,102609.06
2023-02-06T22:23:38.099Z,102609.94
2023-02-06T22:26:14.460Z,102602.13
2023-02-06T22:28:49.641Z,102607.50
2023-02-06T22:31:27.200Z,102617.31
2023-02-06T22:34:01.678Z,102613.78
2023-02-06T22:36:35.045Z,102618.19
2023-02-06T22:39:12.539Z,102624.22
2023-02-06T22:41:47.139Z,102633.75
2023-02-06T22:44:21.561Z,102624.13
2023-02-06T22:46:56.547Z,102631.06
2023-02-06T22:49:29.908Z,102627.66
2023-02-06T22:52:03.314Z,102623.25
2023-02-06T22:54:36.541Z,102623.97
2023-02-06T22:57:12.811Z,102635.16
2023-02-06T22:59:46.073Z,102628.75
2023-02-06T23:02:20.912Z,102628.47
2023-02-06T23:04:54.170Z,102625.69
2023-02-06T23:07:27.565Z,102631.53
2023-02-06T23:10:01.009Z,102629.59
2023-02-06T23:12:34.463Z,102630.25
2023-02-06T23:15:08.297Z,102632.84
2023-02-06T23:17:43.063Z,102632.75
2023-02-06T23:20:16.266Z,102643.28
2023-02-06T23:22:49.475Z,102645.09
2023-02-06T23:25:22.717Z,102643.53
2023-02-06T23:27:56.108Z,102652.56
2023-02-06T23:30:29.368Z,102639.06
2023-02-06T23:33:04.131Z,102641.16
2023-02-06T23:35:38.557Z,102638.09
2023-02-06T23:38:12.456Z,102630.56
2023-02-06T23:40:47.737Z,102640.44
2023-02-06T23:43:21.228Z,102641.56
2023-02-06T23:45:54.651Z,102636.84
2023-02-06T23:48:29.628Z,102634.53
2023-02-06T23:51:03.005Z,102623.75
2023-02-06T23:53:36.719Z,102636.38
2023-02-06T23:56:13.581Z,102635.84
2023-02-06T23:58:47.074Z,102636.16
